Time;durP1;ratioP1;P1;durP2;ratioP2;P2;SDS_P1;SDS_P2;PMS_P1;PMS_P2;Temp;Humidity;BMP_temperature;BMP_pressure;BME280_temperature;BME280_humidity;BME280_pressure;Samples;Min_cycle;Max_cycle;Signal;HPM_P1;HPM_P2
2024/04/08 00:00:24;;;;;;;6.07;2.67;;;;;;;23.09;49.16;100870.63;4967712;28;98956;-75
2024/04/08 00:02:50;;;;;;;7.85;2.83;;;;;;;23.30;48.51;100852.59;4964251;28;97143;-73
2024/04/08 00:05:17;;;;;;;7.93;3.17;;;;;;;23.19;48.73;100885.00;4970045;28;96823;-74
2024/04/08 00:07:43;;;;;;;12.27;3.15;;;;;;;23.11;49.55;100895.59;4968237;28;99162;-75
2024/04/08 00:10:10;;;;;;;13.52;3.38;;;;;;;22.86;51.24;100890.59;4969362;28;97688;-74
2024/04/08 00:12:38;;;;;;;7.32;3.10;;;;;;;22.86;51.03;100890.59;4968226;28;96752;-73
2024/04/08 00:15:06;;;;;;;7.95;3.85;;;;;;;22.76;51.63;100889.66;4965827;28;97411;-73
2024/04/08 00:17:32;;;;;;;5.30;2.70;;;;;;;22.92;51.39;100879.28;4965111;28;101889;-73
2024/04/08 00:19:58;;;;;;;6.78;2.90;;;;;;;22.43;53.25;100882.53;4965565;28;97641;-73
2024/04/08 00:22:24;;;;;;;8.38;2.80;;;;;;;22.37;54.25;100878.50;4962202;28;97026;-72
2024/04/08 00:24:52;;;;;;;12.18;3.00;;;;;;;22.51;53.52;100888.13;4965245;28;97121;-73
2024/04/08 00:27:17;;;;;;;14.68;3.20;;;;;;;22.44;53.80;100886.94;4966466;28;97648;-73
2024/04/08 00:29:43;;;;;;;7.05;2.90;;;;;;;22.05;55.11;100881.16;4965927;28;101343;-73
2024/04/08 00:32:11;;;;;;;11.45;3.25;;;;;;;22.13;55.93;100883.19;4973049;28;96984;-73
2024/04/08 00:34:37;;;;;;;8.18;3.10;;;;;;;22.23;55.04;100889.56;4964000;28;96828;-75
2024/04/08 00:37:03;;;;;;;6.97;3.25;;;;;;;22.01;56.52;100893.13;4966415;28;98954;-74
2024/04/08 00:39:30;;;;;;;7.22;3.10;;;;;;;22.24;56.28;100891.25;4968148;28;101358;-75
2024/04/08 00:41:55;;;;;;;12.77;3.10;;;;;;;22.06;56.64;100895.44;4966705;28;96954;-74
2024/04/08 00:44:22;;;;;;;10.43;3.50;;;;;;;22.16;56.00;100896.41;4963765;28;96915;-74
2024/04/08 00:46:48;;;;;;;10.02;3.15;;;;;;;22.10;56.08;100902.28;4971311;28;98420;-74
2024/04/08 00:49:16;;;;;;;12.07;3.28;;;;;;;22.25;56.35;100880.34;4969107;28;101708;-74
2024/04/08 00:51:43;;;;;;;8.68;3.00;;;;;;;22.50;54.17;100867.56;4970990;28;96854;-73
2024/04/08 00:54:10;;;;;;;8.85;3.45;;;;;;;22.47;53.56;100859.75;4973273;28;96939;-73
2024/04/08 00:56:36;;;;;;;17.98;3.65;;;;;;;22.83;53.18;100888.16;4965465;28;97468;-74
2024/04/08 00:59:05;;;;;;;7.82;3.67;;;;;;;22.76;52.96;100919.28;4963669;28;99019;-75
2024/04/08 01:01:32;;;;;;;6.35;3.50;;;;;;;22.33;54.01;100909.34;4967176;28;97917;-74
2024/04/08 01:03:58;;;;;;;6.57;2.97;;;;;;;22.93;53.18;100891.78;4964317;28;96873;-74
2024/04/08 01:06:25;;;;;;;8.30;4.05;;;;;;;22.82;52.93;100873.84;4961898;28;99346;-74
2024/04/08 01:08:52;;;;;;;9.98;3.38;;;;;;;23.05;52.33;100848.47;4968010;28;97760;-74
2024/04/08 01:11:18;;;;;;;7.82;3.00;;;;;;;22.97;52.52;100833.97;4967027;28;100386;-74
2024/04/08 01:13:45;;;;;;;10.88;4.43;;;;;;;22.86;52.36;100804.38;4973487;28;96884;-73
2024/04/08 01:16:11;;;;;;;11.27;3.90;;;;;;;23.06;52.26;100784.63;4969814;28;97796;-74
2024/04/08 01:18:38;;;;;;;13.25;3.80;;;;;;;23.10;51.75;100744.81;4970708;28;101505;-74
2024/04/08 01:21:05;;;;;;;7.90;3.72;;;;;;;23.06;51.66;100698.41;4975929;28;96868;-75
2024/04/08 01:23:37;;;;;;;10.27;3.55;;;;;;;22.92;51.77;100693.38;4970941;28;96927;-74
2024/04/08 01:26:03;;;;;;;12.18;3.05;;;;;;;22.82;51.44;100711.34;4968484;28;102064;-73
2024/04/08 01:28:30;;;;;;;7.88;3.03;;;;;;;22.73;51.58;100722.91;4972061;28;100954;-74
2024/04/08 01:30:59;;;;;;;8.70;3.60;;;;;;;22.63;51.10;100745.22;4967984;28;96921;-73
2024/04/08 01:33:26;;;;;;;6.15;2.70;;;;;;;22.76;50.36;100753.13;4969640;28;97010;-73
2024/04/08 01:35:53;;;;;;;7.72;2.40;;;;;;;22.78;49.75;100774.53;4967973;28;99313;-74
2024/04/08 01:38:20;;;;;;;13.43;2.88;;;;;;;23.01;49.29;100792.28;4972963;28;99242;-73
2024/04/08 01:40:47;;;;;;;5.93;2.90;;;;;;;22.93;50.38;100816.31;4973461;28;96878;-74
2024/04/08 01:43:14;;;;;;;5.43;2.85;;;;;;;22.77;51.18;100826.72;4969173;28;97356;-74
2024/04/08 01:45:39;;;;;;;9.90;2.88;;;;;;;22.55;51.07;100844.66;4966486;28;98805;-75
2024/04/08 01:48:06;;;;;;;8.82;3.00;;;;;;;22.34;51.61;100853.66;4969507;28;97606;-74
2024/04/08 01:50:32;;;;;;;7.70;2.92;;;;;;;22.17;52.22;100857.75;4966354;28;97592;-73
2024/04/08 01:52:59;;;;;;;7.63;3.05;;;;;;;21.79;53.19;100858.16;4974761;28;97417;-73
2024/04/08 01:55:24;;;;;;;9.10;2.65;;;;;;;22.07;52.30;100840.63;4968023;28;101894;-74
2024/04/08 01:57:52;;;;;;;8.88;2.85;;;;;;;22.36;51.42;100849.88;4971064;28;98929;-72
2024/04/08 02:00:18;;;;;;;7.20;2.80;;;;;;;22.59;51.28;100838.03;4971045;28;98264;-73
2024/04/08 02:02:44;;;;;;;9.45;3.15;;;;;;;22.83;50.53;100832.44;4974962;28;97151;-73
2024/04/08 02:05:10;;;;;;;10.02;2.85;;;;;;;23.03;50.49;100836.13;4966204;28;99108;-72
2024/04/08 02:07:36;;;;;;;5.30;2.83;;;;;;;23.11;51.00;100830.91;4973079;28;97928;-72
2024/04/08 02:10:02;;;;;;;8.57;3.03;;;;;;;23.19;50.69;100841.88;4971793;28;96764;-73
2024/04/08 02:12:28;;;;;;;6.43;2.97;;;;;;;22.77;51.57;100841.06;4966418;28;97339;-73
2024/04/08 02:14:55;;;;;;;10.15;3.17;;;;;;;23.00;51.41;100831.84;4969143;28;99055;-73
2024/04/08 02:17:21;;;;;;;9.25;2.63;;;;;;;23.22;50.88;100819.22;4965568;28;98807;-73
2024/04/08 02:19:47;;;;;;;10.77;3.13;;;;;;;23.11;51.17;100812.03;4972594;28;98473;-72
2024/04/08 02:22:13;;;;;;;5.78;2.78;;;;;;;23.25;51.46;100805.44;4968839;28;97108;-73
2024/04/08 02:24:39;;;;;;;13.07;3.13;;;;;;;23.24;51.35;100798.34;4965320;28;98926;-73
2024/04/08 02:27:05;;;;;;;6.28;2.60;;;;;;;23.16;51.80;100792.78;4964808;28;97594;-72
2024/04/08 02:29:32;;;;;;;8.90;2.90;;;;;;;23.18;51.87;100788.97;4968684;28;96795;-73
2024/04/08 02:31:59;;;;;;;7.07;2.90;;;;;;;23.14;52.20;100782.13;4967551;28;97401;-74
2024/04/08 02:34:25;;;;;;;6.93;2.83;;;;;;;23.25;52.22;100790.13;4968676;28;97696;-74
2024/04/08 02:36:51;;;;;;;6.93;3.13;;;;;;;23.08;52.50;100784.50;4963190;28;99178;-73
2024/04/08 02:39:17;;;;;;;9.25;2.85;;;;;;;22.99;52.48;100783.47;4970499;28;100735;-75
2024/04/08 02:41:43;;;;;;;6.50;2.90;;;;;;;22.98;52.53;100782.59;4964816;28;96848;-74
2024/04/08 02:44:08;;;;;;;8.65;2.92;;;;;;;23.04;52.46;100782.06;4972547;28;98955;-74
2024/04/08 02:46:35;;;;;;;7.32;3.00;;;;;;;23.14;52.44;100782.13;4969278;28;99303;-74
2024/04/08 02:49:02;;;;;;;9.40;3.22;;;;;;;23.03;51.69;100769.63;4965155;28;96963;-74
2024/04/08 02:51:28;;;;;;;9.85;3.22;;;;;;;23.10;52.16;100769.94;4971596;28;97244;-74
2024/04/08 02:53:54;;;;;;;8.43;3.08;;;;;;;23.00;52.21;100769.00;4965633;28;98968;-74
2024/04/08 02:56:21;;;;;;;9.45;2.95;;;;;;;23.12;51.38;100772.47;4965060;28;98857;-74
2024/04/08 02:58:46;;;;;;;9.27;2.85;;;;;;;23.03;51.47;100764.22;4972598;28;96812;-74
2024/04/08 03:01:13;;;;;;;6.95;3.13;;;;;;;23.10;50.87;100771.78;4973739;28;96834;-74
2024/04/08 03:03:39;;;;;;;6.80;3.20;;;;;;;23.07;52.23;100778.28;4968551;28;99279;-74
2024/04/08 03:06:11;;;;;;;10.93;2.85;;;;;;;22.77;53.66;100781.78;4967930;28;99258;-73
2024/04/08 03:08:37;;;;;;;9.27;2.95;;;;;;;22.56;54.98;100781.75;4968760;28;97209;-74
2024/04/08 03:11:04;;;;;;;13.60;3.20;;;;;;;22.76;54.62;100776.53;4964286;28;96971;-73
2024/04/08 03:13:29;;;;;;;10.05;3.22;;;;;;;22.81;54.54;100775.13;4971503;28;100598;-73
2024/04/08 03:15:57;;;;;;;5.50;2.53;;;;;;;22.74;54.81;100773.09;4966113;28;97569;-73
2024/04/08 03:18:22;;;;;;;8.82;2.53;;;;;;;22.80;55.02;100768.03;4968438;28;97098;-74
2024/04/08 03:20:55;;;;;;;14.57;3.60;;;;;;;22.99;53.47;100761.91;4967436;28;96845;-74
2024/04/08 03:23:22;;;;;;;10.23;2.80;;;;;;;22.85;53.54;100757.72;4968714;28;101852;-74
2024/04/08 03:25:49;;;;;;;4.63;2.80;;;;;;;22.94;53.50;100762.31;4963305;28;97517;-73
2024/04/08 03:28:15;;;;;;;8.65;3.25;;;;;;;22.89;52.74;100766.41;4965396;28;97149;-73
2024/04/08 03:30:41;;;;;;;9.77;2.83;;;;;;;22.84;53.95;100760.56;4967893;28;98848;-73
2024/04/08 03:33:07;;;;;;;10.18;3.85;;;;;;;22.75;54.28;100761.34;4967419;28;98777;-74
2024/04/08 03:35:33;;;;;;;6.72;3.10;;;;;;;22.88;54.14;100754.78;4970897;28;98847;-74
2024/04/08 03:38:00;;;;;;;11.85;3.28;;;;;;;22.73;54.51;100750.69;4969126;28;99270;-74
2024/04/08 03:40:28;;;;;;;10.35;2.95;;;;;;;22.60;54.73;100756.25;4967491;28;97056;-74
2024/04/08 03:42:55;;;;;;;12.82;3.20;;;;;;;22.65;55.56;100758.53;4966586;28;98504;-75
2024/04/08 03:45:22;;;;;;;12.05;3.63;;;;;;;22.54;55.51;100761.31;4968729;28;97946;-75
2024/04/08 03:47:48;;;;;;;14.32;3.25;;;;;;;22.45;55.83;100759.41;4966562;28;96957;-74
2024/04/08 03:50:14;;;;;;;13.43;3.65;;;;;;;22.03;56.54;100756.63;4963077;28;96909;-75
2024/04/08 03:52:40;;;;;;;13.65;3.22;;;;;;;21.91;56.79;100752.25;4971250;28;99355;-75
2024/04/08 03:55:07;;;;;;;11.25;3.08;;;;;;;22.11;56.75;100740.72;4969373;28;99035;-75
2024/04/08 03:57:34;;;;;;;11.93;3.50;;;;;;;21.79;57.80;100747.88;4967750;28;97806;-75
2024/04/08 04:00:00;;;;;;;6.32;3.13;;;;;;;21.92;56.97;100748.56;4969364;28;97189;-75
2024/04/08 04:02:26;;;;;;;11.02;3.40;;;;;;;21.91;57.22;100746.88;4959824;28;98898;-75
2024/04/08 04:04:54;;;;;;;7.10;3.03;;;;;;;21.86;57.60;100747.22;4968283;28;97641;-78
2024/04/08 04:07:21;;;;;;;7.72;3.05;;;;;;;22.09;56.82;100755.28;4969101;28;96837;-76
2024/04/08 04:09:48;;;;;;;6.78;2.90;;;;;;;22.10;56.78;100756.97;4970937;28;97177;-75
2024/04/08 04:12:13;;;;;;;7.07;3.08;;;;;;;21.79;58.89;100743.31;4964181;28;97741;-74
2024/04/08 04:14:44;;;;;;;7.85;3.30;;;;;;;22.04;57.76;100746.72;4967347;28;99373;-74
2024/04/08 04:17:10;;;;;;;8.15;2.83;;;;;;;22.23;57.05;100744.22;4962627;28;96923;-74
2024/04/08 04:19:36;;;;;;;7.70;3.25;;;;;;;22.50;56.42;100731.09;4967594;28;96820;-74
2024/04/08 04:22:05;;;;;;;9.23;3.28;;;;;;;22.58;55.61;100717.81;4966441;28;102580;-76
2024/04/08 04:24:31;;;;;;;9.60;3.05;;;;;;;22.57;55.63;100729.59;4967131;28;99083;-73
2024/04/08 04:26:57;;;;;;;8.82;3.40;;;;;;;22.23;57.03;100725.38;4966041;28;97142;-74
2024/04/08 04:29:23;;;;;;;7.25;2.63;;;;;;;22.18;57.34;100727.59;4966403;28;97118;-74
2024/04/08 04:31:50;;;;;;;11.05;3.70;;;;;;;22.40;56.62;100726.63;4968964;28;102323;-74
2024/04/08 04:34:19;;;;;;;7.40;3.03;;;;;;;22.59;55.75;100724.91;4971496;28;102364;-75
2024/04/08 04:36:45;;;;;;;8.73;3.40;;;;;;;22.49;56.09;100720.47;4961402;28;97129;-74
2024/04/08 04:39:11;;;;;;;8.40;2.60;;;;;;;22.69;55.73;100713.34;4966357;28;96895;-75
2024/04/08 04:41:37;;;;;;;7.22;3.15;;;;;;;22.61;55.67;100722.09;4958825;28;101982;-75
2024/04/08 04:44:05;;;;;;;9.40;3.53;;;;;;;22.19;57.14;100718.50;4966479;28;97558;-74
2024/04/08 04:46:31;;;;;;;17.70;3.63;;;;;;;22.24;56.42;100741.41;4972894;28;97055;-75
2024/04/08 04:48:59;;;;;;;14.10;3.13;;;;;;;22.00;57.32;100738.03;4968347;28;97025;-74
2024/04/08 04:51:25;;;;;;;8.80;3.28;;;;;;;21.78;58.44;100730.03;4974210;28;98315;-78
2024/04/08 04:53:51;;;;;;;8.25;3.10;;;;;;;22.04;57.31;100727.91;4968516;28;98042;-76
2024/04/08 04:56:17;;;;;;;5.60;3.08;;;;;;;22.07;57.92;100730.31;4967367;28;96813;-76
2024/04/08 04:58:43;;;;;;;10.18;3.88;;;;;;;21.88;57.79;100737.19;4968673;28;96847;-75
2024/04/08 05:01:09;;;;;;;12.68;3.35;;;;;;;21.67;59.01;100738.97;4969049;28;96978;-76
2024/04/08 05:03:35;;;;;;;11.02;4.10;;;;;;;21.85;59.14;100734.78;4970350;28;99154;-75
2024/04/08 05:06:03;;;;;;;10.32;4.22;;;;;;;22.26;58.13;100738.56;4968170;28;100480;-75
2024/04/08 05:08:29;;;;;;;9.45;3.22;;;;;;;22.23;58.43;100753.13;4968899;28;97092;-76
2024/04/08 05:10:55;;;;;;;11.13;3.70;;;;;;;21.84;58.62;100753.72;4972310;28;98781;-74
2024/04/08 05:13:21;;;;;;;13.27;4.00;;;;;;;21.76;58.75;100765.09;4972438;28;101257;-77
2024/04/08 05:15:57;;;;;;;13.25;4.03;;;;;;;21.63;59.31;100764.41;4966985;28;99857;-76
2024/04/08 05:18:24;;;;;;;9.90;3.97;;;;;;;21.66;59.45;100771.38;4973986;28;96899;-76
2024/04/08 05:20:50;;;;;;;16.38;3.78;;;;;;;22.00;59.08;100769.47;4970148;28;99204;-77
2024/04/08 05:23:17;;;;;;;12.65;3.42;;;;;;;21.84;59.68;100765.34;4967662;28;98330;-76
2024/04/08 05:25:44;;;;;;;9.65;3.90;;;;;;;22.13;58.91;100773.72;4969201;28;98314;-75
2024/04/08 05:28:10;;;;;;;9.05;3.40;;;;;;;22.04;59.01;100769.13;4972146;28;97760;-76
2024/04/08 05:30:37;;;;;;;12.55;3.33;;;;;;;22.10;59.10;100778.50;4967607;28;98879;-76
2024/04/08 05:33:03;;;;;;;9.18;3.80;;;;;;;22.08;59.77;100770.56;4969648;28;100651;-74
2024/04/08 05:35:30;;;;;;;13.27;4.03;;;;;;;22.34;59.08;100784.53;4967500;28;98753;-73
2024/04/08 05:37:56;;;;;;;9.82;3.47;;;;;;;22.45;59.40;100789.03;4967514;28;97013;-74
2024/04/08 05:40:24;;;;;;;13.93;4.35;;;;;;;22.63;58.80;100796.41;4967339;28;98984;-73
2024/04/08 05:42:50;;;;;;;21.38;4.18;;;;;;;22.35;59.19;100797.00;4970412;28;99394;-74
2024/04/08 05:45:17;;;;;;;16.15;3.90;;;;;;;22.43;58.23;100796.38;4967983;28;96836;-74
2024/04/08 05:47:43;;;;;;;15.48;4.43;;;;;;;22.62;55.71;100801.91;4971924;28;97225;-74
2024/04/08 05:50:09;;;;;;;12.68;4.10;;;;;;;22.98;55.30;100804.16;4971563;28;98644;-75
2024/04/08 05:52:35;;;;;;;15.63;4.30;;;;;;;22.70;56.29;100814.72;4975948;28;100352;-74
2024/04/08 05:55:02;;;;;;;12.57;3.67;;;;;;;22.57;56.17;100810.38;4964489;28;97490;-74
2024/04/08 05:57:29;;;;;;;17.73;4.20;;;;;;;22.45;56.85;100819.47;4965481;28;96845;-74
2024/04/08 05:59:55;;;;;;;16.13;4.03;;;;;;;22.29;59.05;100819.06;4970152;28;101278;-75
2024/04/08 06:02:21;;;;;;;15.32;4.22;;;;;;;22.41;58.38;100804.56;4970596;28;101723;-74
2024/04/08 06:04:47;;;;;;;15.85;4.90;;;;;;;22.55;57.24;100812.34;4970705;28;98560;-75
2024/04/08 06:07:13;;;;;;;14.18;4.90;;;;;;;22.45;57.82;100810.56;4967383;28;96898;-74
2024/04/08 06:09:39;;;;;;;10.68;4.13;;;;;;;22.54;57.13;100832.16;4969837;28;98928;-76
2024/04/08 06:12:06;;;;;;;10.05;4.35;;;;;;;22.39;57.51;100833.44;4969375;28;99338;-73
2024/04/08 06:14:34;;;;;;;13.02;4.63;;;;;;;22.58;57.10;100840.84;4974254;28;96828;-75
2024/04/08 06:17:00;;;;;;;11.38;4.20;;;;;;;22.51;57.24;100842.38;4967390;28;97874;-74
2024/04/08 06:19:26;;;;;;;11.70;4.60;;;;;;;22.93;56.25;100843.28;4971220;28;102034;-74
2024/04/08 06:21:52;;;;;;;16.35;4.35;;;;;;;22.75;56.04;100850.22;4964153;28;99447;-74
2024/04/08 06:24:19;;;;;;;15.30;4.47;;;;;;;22.41;56.64;100850.34;4968658;28;96904;-74
2024/04/08 06:26:44;;;;;;;10.63;4.60;;;;;;;23.15;54.32;100847.69;4965010;28;96863;-74
2024/04/08 06:29:11;;;;;;;10.80;4.07;;;;;;;23.18;53.46;100852.78;4965914;28;102507;-76
2024/04/08 06:31:38;;;;;;;13.00;4.72;;;;;;;23.36;53.00;100845.84;4969614;28;99622;-76
2024/04/08 06:34:04;;;;;;;10.38;4.22;;;;;;;23.40;52.13;100856.22;4968341;28;96806;-76
2024/04/08 06:36:35;;;;;;;15.23;4.43;;;;;;;22.95;53.94;100858.34;4967728;28;96970;-75
2024/04/08 06:39:01;;;;;;;19.65;4.28;;;;;;;23.21;53.11;100857.94;4969187;28;100191;-77
2024/04/08 06:41:27;;;;;;;13.30;4.38;;;;;;;23.12;52.95;100859.56;4965329;28;99378;-76
2024/04/08 06:43:56;;;;;;;11.80;3.38;;;;;;;23.01;52.54;100856.97;4965393;28;97051;-75
2024/04/08 06:46:23;;;;;;;7.97;3.65;;;;;;;23.01;52.77;100854.25;4970194;28;97526;-74
2024/04/08 06:48:51;;;;;;;9.23;3.47;;;;;;;23.24;52.44;100860.34;4958861;28;99612;-75
2024/04/08 06:51:16;;;;;;;8.82;3.67;;;;;;;23.25;52.19;100859.38;4970567;28;101861;-75
2024/04/08 06:53:43;;;;;;;9.77;3.17;;;;;;;23.21;52.05;100853.41;4972400;28;96784;-75
2024/04/08 06:56:09;;;;;;;8.95;3.58;;;;;;;23.41;51.68;100839.03;4967160;28;97569;-76
2024/04/08 06:58:38;;;;;;;9.35;3.70;;;;;;;23.34;52.36;100842.41;4970275;28;99117;-75
2024/04/08 07:01:04;;;;;;;9.55;3.63;;;;;;;23.47;51.86;100845.78;4969526;28;98799;-74
2024/04/08 07:03:30;;;;;;;10.75;3.92;;;;;;;23.33;51.81;100860.41;4970381;28;96878;-74
2024/04/08 07:05:57;;;;;;;9.90;3.40;;;;;;;23.36;51.24;100852.09;4965203;28;98243;-75
2024/04/08 07:08:24;;;;;;;7.95;3.72;;;;;;;23.43;51.62;100844.31;4969327;28;101828;-75
2024/04/08 07:10:50;;;;;;;11.07;3.00;;;;;;;23.39;51.71;100841.00;4964459;28;97982;-75
2024/04/08 07:13:18;;;;;;;10.43;3.20;;;;;;;23.52;51.47;100837.25;4969175;28;96831;-76
2024/04/08 07:15:52;;;;;;;10.02;4.55;;;;;;;23.79;50.83;100845.63;4965490;28;96850;-76
2024/04/08 07:18:18;;;;;;;7.47;3.35;;;;;;;23.70;50.79;100855.38;4970665;28;99382;-74
2024/04/08 07:20:44;;;;;;;11.80;3.80;;;;;;;23.81;50.49;100866.09;4972271;28;97491;-75
2024/04/08 07:23:12;;;;;;;8.00;3.30;;;;;;;23.70;50.58;100868.84;4969269;28;96830;-75
2024/04/08 07:25:38;;;;;;;12.77;3.78;;;;;;;24.05;50.03;100844.13;4971118;28;97343;-75
2024/04/08 07:28:05;;;;;;;12.18;3.15;;;;;;;24.21;49.89;100852.59;4964523;28;99524;-75
2024/04/08 07:30:30;;;;;;;10.35;3.65;;;;;;;24.65;48.59;100847.66;4969712;28;99448;-77
2024/04/08 07:32:57;;;;;;;12.15;4.30;;;;;;;24.98;47.51;100871.56;4971256;28;96862;-74
2024/04/08 07:35:23;;;;;;;9.32;3.50;;;;;;;25.10;47.01;100890.31;4970943;28;98302;-75
2024/04/08 07:37:49;;;;;;;8.98;3.08;;;;;;;25.19;46.27;100886.75;4964342;28;99388;-75
2024/04/08 07:40:17;;;;;;;12.63;3.33;;;;;;;25.58;45.58;100869.47;4966721;28;98885;-75
2024/04/08 07:42:43;;;;;;;14.32;3.60;;;;;;;25.83;44.40;100861.66;4967273;28;96724;-76
2024/04/08 07:45:09;;;;;;;14.63;3.53;;;;;;;25.53;44.50;100855.50;4967042;28;96919;-76
2024/04/08 07:47:36;;;;;;;7.40;3.75;;;;;;;25.20;45.58;100837.94;4966190;28;99500;-74
2024/04/08 07:50:02;;;;;;;8.35;3.90;;;;;;;24.71;47.00;100787.63;4966376;28;99046;-74
2024/04/08 07:52:29;;;;;;;9.65;3.70;;;;;;;24.69;47.23;100718.50;4971863;28;96803;-73
2024/04/08 07:54:54;;;;;;;13.73;3.70;;;;;;;24.58;47.70;100690.69;4972293;28;96942;-74
2024/04/08 07:57:22;;;;;;;11.13;3.78;;;;;;;24.49;48.43;100694.25;4966639;28;98235;-73
2024/04/08 07:59:51;;;;;;;8.30;3.90;;;;;;;24.66;48.06;100686.41;4961224;28;97042;-77
2024/04/08 08:02:18;;;;;;;8.70;3.55;;;;;;;24.83;47.64;100700.00;4967968;28;97319;-76
2024/04/08 08:04:44;;;;;;;10.13;3.03;;;;;;;24.97;46.80;100731.13;4969216;28;97681;-76
2024/04/08 08:07:10;;;;;;;8.75;3.50;;;;;;;24.82;46.94;100754.19;4968774;28;101799;-76
2024/04/08 08:09:37;;;;;;;8.10;3.25;;;;;;;24.79;47.56;100776.97;4971175;28;101965;-75
2024/04/08 08:12:04;;;;;;;7.13;3.33;;;;;;;24.51;47.29;100781.41;4974660;28;98649;-76
2024/04/08 08:14:31;;;;;;;9.25;3.45;;;;;;;24.59;47.50;100791.50;4971423;28;96932;-77
2024/04/08 08:16:58;;;;;;;12.77;3.67;;;;;;;24.47;48.11;100752.13;4972447;28;98924;-75
2024/04/08 08:19:24;;;;;;;13.65;3.33;;;;;;;24.67;47.80;100763.75;4975668;28;98797;-74
2024/04/08 08:21:51;;;;;;;10.35;3.78;;;;;;;24.47;47.80;100757.53;4973311;28;97202;-76
2024/04/08 08:24:18;;;;;;;12.23;3.50;;;;;;;24.78;47.59;100723.91;4970906;28;97357;-76
2024/04/08 08:26:45;;;;;;;8.85;3.53;;;;;;;24.93;47.49;100705.41;4973080;28;98309;-76
2024/04/08 08:29:10;;;;;;;13.48;3.53;;;;;;;24.89;47.52;100721.06;4970661;28;98929;-75
2024/04/08 08:31:39;;;;;;;8.45;3.42;;;;;;;24.95;46.98;100738.53;4969484;28;97159;-75
2024/04/08 08:34:04;;;;;;;12.90;3.60;;;;;;;24.75;47.03;100728.72;4971591;28;96971;-77
2024/04/08 08:36:31;;;;;;;10.15;3.08;;;;;;;24.65;47.72;100696.34;4959888;28;98753;-76
2024/04/08 08:38:56;;;;;;;11.00;3.60;;;;;;;25.24;46.99;100650.06;4967696;28;100379;-76
2024/04/08 08:41:23;;;;;;;17.38;3.83;;;;;;;25.39;45.73;100632.31;4967065;28;97742;-75
2024/04/08 08:43:50;;;;;;;15.10;4.03;;;;;;;25.37;45.63;100631.63;4971410;28;98078;-75
2024/04/08 08:46:16;;;;;;;9.98;4.20;;;;;;;25.30;45.64;100616.16;4971026;28;99748;-75
2024/04/08 08:48:49;;;;;;;12.15;3.88;;;;;;;25.26;45.42;100620.16;4967822;28;98886;-75
2024/04/08 08:51:15;;;;;;;9.48;3.58;;;;;;;25.37;45.72;100628.06;4969939;28;97255;-76
2024/04/08 08:53:41;;;;;;;12.77;3.42;;;;;;;25.53;45.19;100643.63;4969175;28;96946;-76
2024/04/08 08:56:14;;;;;;;11.63;3.40;;;;;;;25.48;44.90;100646.78;4966087;28;99556;-76
2024/04/08 08:58:40;;;;;;;14.82;4.10;;;;;;;25.53;44.73;100644.47;4967459;28;98971;-76
2024/04/08 09:01:10;;;;;;;12.57;3.63;;;;;;;25.52;44.65;100626.53;4959312;28;100729;-76
2024/04/08 09:03:36;;;;;;;10.93;3.53;;;;;;;25.47;45.19;100626.13;4968451;28;96908;-76
2024/04/08 09:06:04;;;;;;;11.95;3.78;;;;;;;25.68;45.16;100607.78;4961905;28;101340;-76
2024/04/08 09:08:29;;;;;;;12.98;3.75;;;;;;;26.16;44.24;100593.81;4967439;28;98895;-75
2024/04/08 09:10:57;;;;;;;12.07;3.97;;;;;;;26.42;43.12;100599.25;4972091;28;97161;-76
2024/04/08 09:13:24;;;;;;;17.33;4.03;;;;;;;26.40;43.11;100617.53;4971804;28;96912;-77
2024/04/08 09:15:51;;;;;;;18.85;3.97;;;;;;;26.21;43.87;100615.00;4968047;28;101741;-77
2024/04/08 09:18:18;;;;;;;14.98;4.40;;;;;;;26.12;43.75;100641.16;4970348;28;102083;-76
2024/04/08 09:20:44;;;;;;;8.38;3.33;;;;;;;25.72;45.22;100638.09;4970163;28;97153;-76
2024/04/08 09:23:12;;;;;;;13.07;3.72;;;;;;;25.80;45.40;100644.41;4971653;28;98031;-75
2024/04/08 09:25:41;;;;;;;13.95;3.85;;;;;;;25.59;45.33;100638.50;4966751;28;98580;-76
2024/04/08 09:28:07;;;;;;;11.23;3.97;;;;;;;25.88;44.73;100630.13;4963438;28;97526;-75
2024/04/08 09:30:35;;;;;;;10.27;3.55;;;;;;;25.60;45.96;100645.56;4968216;28;96742;-76
2024/04/08 09:33:01;;;;;;;18.65;3.75;;;;;;;25.37;46.05;100653.25;4968931;28;96852;-76
2024/04/08 09:35:29;;;;;;;20.35;3.78;;;;;;;25.10;47.16;100663.22;4966145;28;98232;-75
2024/04/08 09:37:55;;;;;;;15.75;3.88;;;;;;;25.18;46.48;100656.06;4967308;28;100122;-76
2024/04/08 09:40:26;;;;;;;11.32;3.10;;;;;;;25.46;46.25;100647.94;4969276;28;96871;-79
2024/04/08 09:42:54;;;;;;;18.70;4.43;;;;;;;26.07;44.94;100646.19;4968542;28;96871;-77
2024/04/08 09:45:22;;;;;;;14.13;4.00;;;;;;;26.56;43.52;100649.31;4970334;28;99133;-78
2024/04/08 09:47:49;;;;;;;14.40;3.70;;;;;;;26.94;42.45;100656.16;4966221;28;99358;-79
2024/04/08 09:50:17;;;;;;;11.48;3.70;;;;;;;26.74;42.76;100662.78;4988099;28;97274;-79
2024/04/08 09:52:43;;;;;;;9.90;3.90;;;;;;;26.65;42.36;100663.78;4984426;28;97305;-79
2024/04/08 09:55:11;;;;;;;21.63;4.07;;;;;;;26.45;43.00;100636.84;4991580;28;97996;-78
2024/04/08 09:57:41;;;;;;;11.25;3.78;;;;;;;26.84;42.70;100612.03;4984125;28;98408;-74
2024/04/08 10:00:12;;;;;;;17.30;3.03;;;;;;;26.95;42.16;100611.78;4990330;28;96821;-74
2024/04/08 10:02:41;;;;;;;17.00;4.07;;;;;;;27.06;41.65;100625.03;4991385;28;97334;-74
2024/04/08 10:05:07;;;;;;;11.00;3.60;;;;;;;26.99;42.17;100618.56;4991577;28;99799;-74
2024/04/08 10:07:35;;;;;;;15.55;3.75;;;;;;;27.11;42.07;100617.25;4988706;28;99370;-73
2024/04/08 10:10:03;;;;;;;15.43;4.40;;;;;;;27.54;41.45;100618.09;4985594;28;96770;-74
2024/04/08 10:12:31;;;;;;;23.13;4.25;;;;;;;27.67;41.25;100615.72;4991551;28;98022;-73
2024/04/08 10:15:09;;;;;;;11.07;3.22;;;;;;;27.92;40.27;100612.00;4991764;28;101038;-74
2024/04/08 10:17:36;;;;;;;22.83;4.28;;;;;;;27.83;40.14;100615.72;4988764;28;99318;-74
2024/04/08 10:20:03;;;;;;;11.57;3.42;;;;;;;27.72;39.26;100603.34;4985509;28;96846;-74
2024/04/08 10:22:29;;;;;;;19.05;3.72;;;;;;;27.83;39.43;100613.00;4987685;28;97169;-74
2024/04/08 10:24:55;;;;;;;11.27;2.95;;;;;;;27.74;39.11;100614.03;4988895;28;97857;-74
2024/04/08 10:27:25;;;;;;;14.90;2.90;;;;;;;27.90;38.98;100619.47;4989416;28;101373;-74
2024/04/08 10:29:57;;;;;;;6.85;2.83;;;;;;;28.01;38.59;100621.88;4992084;28;97176;-74
2024/04/08 10:32:26;;;;;;;8.27;2.70;;;;;;;28.02;38.93;100618.16;4989623;28;97241;-75
2024/04/08 10:34:57;;;;;;;14.75;3.05;;;;;;;28.26;37.90;100621.88;4985410;28;99747;-74
2024/04/08 10:37:23;;;;;;;12.10;2.90;;;;;;;27.98;38.19;100626.78;4987159;28;102147;-73
2024/04/08 10:39:59;;;;;;;11.95;3.03;;;;;;;28.13;38.21;100633.22;4988469;28;97051;-73
2024/04/08 10:42:27;;;;;;;10.52;3.13;;;;;;;28.26;37.88;100638.19;4988746;28;97215;-74
2024/04/08 10:44:59;;;;;;;7.88;2.83;;;;;;;28.15;38.01;100623.09;4989653;28;98707;-75
2024/04/08 10:47:26;;;;;;;12.13;2.65;;;;;;;28.49;37.85;100628.28;4984213;28;98134;-73
2024/04/08 10:49:52;;;;;;;11.38;3.22;;;;;;;28.50;37.56;100628.13;4994082;28;97068;-74
2024/04/08 10:52:18;;;;;;;12.95;3.08;;;;;;;28.42;38.23;100619.97;4986714;28;97707;-74
2024/04/08 10:54:45;;;;;;;11.20;2.70;;;;;;;28.57;37.75;100614.69;4989817;28;99195;-74
2024/04/08 10:57:10;;;;;;;13.10;2.70;;;;;;;28.66;37.91;100605.50;4987713;28;100449;-73
2024/04/08 10:59:37;;;;;;;14.38;3.53;;;;;;;29.05;37.24;100601.97;4991274;28;97128;-74
2024/04/08 11:02:12;;;;;;;8.38;2.72;;;;;;;29.17;36.87;100600.56;4989468;28;97622;-73
2024/04/08 11:04:40;;;;;;;13.57;3.10;;;;;;;29.30;36.88;100603.53;4992084;28;99365;-74
2024/04/08 11:07:06;;;;;;;20.33;3.50;;;;;;;29.41;36.80;100595.00;4978716;28;98796;-74
2024/04/08 11:09:36;;;;;;;16.83;3.10;;;;;;;29.51;36.55;100594.78;4989748;28;98227;-74
2024/04/08 11:12:03;;;;;;;15.50;3.13;;;;;;;29.52;36.70;100600.06;4987349;28;97052;-76
2024/04/08 11:14:30;;;;;;;11.38;3.20;;;;;;;29.18;36.84;100594.94;4991483;28;99443;-74
2024/04/08 11:16:59;;;;;;;24.55;3.42;;;;;;;29.04;37.00;100608.44;4988113;28;98112;-74